Camp Pendleton MCAS (Munn Field) Airport


Codes: KNFG/
Name: Camp Pendleton MCAS (Munn Field) Airport
City: Oceanside
Country: United States
Elevation: 78 ft.
Wikipedia:

Photos at Camp Pendleton MCAS (Munn Field) Airport


   Photos courtesy of SpottingLog. You can add your own sightings and photos by signing up for a free trial today.



No photos found.

Weather at Camp Pendleton MCAS (Munn Field) Airport


Time (UTC)DescriptionTempratureWindCloud coverageVisibilityPressureHumidity
16-Jun-2024 12:00Broken Clouds16°C4 mph, SE70%10000m1008hPa92%
16-Jun-2024 15:00Scattered Clouds18°C7 mph, SE39%10000m1008hPa81%
16-Jun-2024 18:00Clear Sky22°C13 mph, S2%10000m1008hPa59%
16-Jun-2024 21:00Clear Sky22°C11 mph, S3%10000m1007hPa61%
17-Jun-2024 00:00Clear Sky20°C11 mph, S5%10000m1007hPa72%
17-Jun-2024 03:00Few Clouds17°C7 mph, S14%10000m1007hPa84%
17-Jun-2024 06:00Few Clouds16°C4 mph, S23%10000m1007hPa90%
17-Jun-2024 09:00Scattered Clouds15°C4 mph, S39%10000m1006hPa90%
17-Jun-2024 12:00Scattered Clouds14°C4 mph, SE45%10000m1006hPa89%
17-Jun-2024 15:00Few Clouds17°C7 mph, S12%10000m1007hPa77%
17-Jun-2024 18:00Clear Sky21°C11 mph, SW8%10000m1006hPa62%
17-Jun-2024 21:00Clear Sky21°C11 mph, SW1%10000m1006hPa62%
18-Jun-2024 00:00Clear Sky20°C9 mph, SW2%10000m1005hPa68%
18-Jun-2024 03:00Clear Sky17°C7 mph, S0%10000m1005hPa82%
18-Jun-2024 06:00Clear Sky16°C4 mph, SE7%10000m1006hPa89%
18-Jun-2024 09:00Broken Clouds16°C4 mph, S66%10000m1006hPa86%
18-Jun-2024 12:00Scattered Clouds15°C2 mph, SE45%10000m1006hPa87%
18-Jun-2024 15:00Clear Sky18°C4 mph, S5%10000m1007hPa75%
18-Jun-2024 18:00Clear Sky22°C9 mph, SW3%10000m1007hPa57%
18-Jun-2024 21:00Clear Sky22°C11 mph, SW2%10000m1007hPa59%
19-Jun-2024 00:00Clear Sky21°C9 mph, SW2%10000m1006hPa64%
19-Jun-2024 03:00Few Clouds18°C4 mph, SW20%10000m1008hPa77%
19-Jun-2024 06:00Clear Sky16°C2 mph, SE10%10000m1008hPa84%
19-Jun-2024 09:00Clear Sky15°C2 mph, S0%10000m1008hPa86%
19-Jun-2024 12:00Clear Sky15°C2 mph, SE0%10000m1008hPa89%
19-Jun-2024 15:00Clear Sky18°C4 mph, SE0%10000m1009hPa74%
19-Jun-2024 18:00Clear Sky23°C9 mph, SW0%10000m1009hPa58%
19-Jun-2024 21:00Clear Sky22°C11 mph, SW5%10000m1009hPa60%
20-Jun-2024 00:00Clear Sky21°C9 mph, SW5%10000m1008hPa62%
20-Jun-2024 03:00Clear Sky17°C4 mph, SW1%10000m1008hPa77%
20-Jun-2024 06:00Clear Sky16°C2 mph, S0%10000m1009hPa82%
20-Jun-2024 09:00Clear Sky15°C2 mph, S0%10000m1009hPa84%
20-Jun-2024 12:00Clear Sky15°C4 mph, SE0%10000m1009hPa87%
20-Jun-2024 15:00Clear Sky18°C4 mph, S0%10000m1009hPa72%
20-Jun-2024 18:00Clear Sky23°C9 mph, SW0%10000m1009hPa56%
20-Jun-2024 21:00Clear Sky22°C11 mph, SW4%10000m1008hPa56%
21-Jun-2024 00:00Clear Sky21°C9 mph, SW4%10000m1007hPa61%
21-Jun-2024 03:00Clear Sky17°C4 mph, SW3%10000m1007hPa79%
21-Jun-2024 06:00Clear Sky16°C2 mph, SW2%10000m1008hPa84%
21-Jun-2024 09:00Clear Sky16°C2 mph, SW0%10000m1006hPa84%